Time;durP1;ratioP1;P1;durP2;ratioP2;P2;SDS_P1;SDS_P2;PMS_P1;PMS_P2;Temp;Humidity;BMP_temperature;BMP_pressure;BME280_temperature;BME280_humidity;BME280_pressure;Samples;Min_cycle;Max_cycle;Signal;HPM_P1;HPM_P2
2021/06/16 05:32:04;;;;;;;5.87;2.87;;;;;;;18.87;57.86;100625.98;1614617;84;25727;-69
2021/06/16 05:34:31;;;;;;;5.80;2.55;;;;;;;18.95;57.59;100630.45;1616119;86;26610;-69
2021/06/16 05:36:57;;;;;;;4.03;2.45;;;;;;;19.00;57.51;100635.09;1607304;87;25942;-70
2021/06/16 05:39:24;;;;;;;7.87;2.67;;;;;;;19.04;57.49;100630.48;1597858;87;27299;-71
2021/06/16 05:41:51;;;;;;;7.00;2.75;;;;;;;19.12;57.40;100636.11;1611214;88;25738;-70
2021/06/16 05:44:18;;;;;;;7.20;2.83;;;;;;;19.17;57.26;100645.42;1576477;89;26057;-68
2021/06/16 05:46:45;;;;;;;8.28;2.98;;;;;;;19.23;57.28;100651.64;1545403;92;25944;-71
2021/06/16 05:49:12;;;;;;;15.43;2.87;;;;;;;19.33;57.12;100652.23;1602030;88;25914;-73
2021/06/16 05:51:38;;;;;;;8.18;2.75;;;;;;;19.36;56.87;100652.31;1604832;87;27510;-73
2021/06/16 05:54:10;;;;;;;11.63;3.10;;;;;;;19.43;56.96;100648.92;1604139;88;25870;-73
2021/06/16 05:56:34;;;;;;;3.83;2.40;;;;;;;19.49;56.70;100654.33;1604694;88;25858;-68
2021/06/16 05:59:00;;;;;;;6.62;3.02;;;;;;;19.53;56.62;100649.72;1619157;86;26021;-71
2021/06/16 06:01:26;;;;;;;6.72;2.87;;;;;;;19.58;56.24;100649.43;1612545;87;25705;-76
2021/06/16 06:03:52;;;;;;;7.22;2.90;;;;;;;19.65;56.19;100654.27;1595631;87;27321;-69
2021/06/16 06:06:19;;;;;;;6.50;2.62;;;;;;;19.76;56.29;100659.40;1627029;86;25869;-69
2021/06/16 06:08:45;;;;;;;5.67;2.17;;;;;;;19.85;55.92;100657.02;1621198;87;25787;-70
2021/06/16 06:11:11;;;;;;;4.10;2.15;;;;;;;19.95;56.04;100664.09;1627775;85;25940;-71
2021/06/16 06:13:38;;;;;;;6.08;3.02;;;;;;;20.04;55.83;100658.92;1623367;87;25827;-72
2021/06/16 06:16:05;;;;;;;8.28;3.20;;;;;;;20.14;55.76;100662.44;1632265;85;27320;-71
2021/06/16 06:18:31;;;;;;;6.35;2.62;;;;;;;20.26;55.64;100661.47;1612661;86;25796;-68
2021/06/16 06:20:58;;;;;;;9.58;2.52;;;;;;;20.38;55.40;100664.62;1617491;86;25930;-71
2021/06/16 06:23:24;;;;;;;6.33;2.42;;;;;;;20.47;55.20;100663.22;1614527;86;26143;-71
2021/06/16 06:25:51;;;;;;;4.87;2.60;;;;;;;20.58;54.95;100660.64;1607094;86;25883;-69
2021/06/16 06:28:18;;;;;;;3.10;1.95;;;;;;;20.72;55.18;100668.34;1606699;87;27377;-71
2021/06/16 06:30:46;;;;;;;4.87;2.35;;;;;;;20.84;54.92;100664.59;1595513;87;25940;-72
2021/06/16 06:33:12;;;;;;;7.50;2.20;;;;;;;20.98;54.64;100672.28;1599356;87;26705;-77
2021/06/16 06:35:40;;;;;;;3.90;2.12;;;;;;;21.08;54.48;100660.05;1586476;87;26446;-70
2021/06/16 06:38:07;;;;;;;6.87;2.27;;;;;;;21.18;53.93;100655.88;1597543;88;26498;-72
2021/06/16 06:40:34;;;;;;;4.58;2.25;;;;;;;21.27;53.77;100670.13;1588683;88;27470;-68
2021/06/16 06:43:01;;;;;;;7.20;2.42;;;;;;;21.35;53.54;100675.72;1589867;86;26059;-70
2021/06/16 06:45:28;;;;;;;7.17;2.62;;;;;;;21.42;53.38;100668.95;1548512;90;26545;-72
2021/06/16 06:47:54;;;;;;;8.93;2.92;;;;;;;21.51;53.36;100667.31;1591376;87;25989;-71
2021/06/16 06:50:21;;;;;;;7.92;2.60;;;;;;;21.63;53.33;100669.81;1601434;87;25946;-71
2021/06/16 06:52:48;;;;;;;5.15;2.58;;;;;;;21.78;53.09;100663.90;1598248;87;28051;-69
2021/06/16 06:55:16;;;;;;;5.47;2.72;;;;;;;21.87;52.78;100667.13;1601995;87;26779;-67
2021/06/16 06:57:43;;;;;;;6.90;2.80;;;;;;;22.00;52.45;100678.69;1600103;86;26783;-72
2021/06/16 07:00:12;;;;;;;8.30;2.37;;;;;;;22.04;52.14;100673.22;1601358;87;26023;-72
2021/06/16 07:02:39;;;;;;;5.80;2.98;;;;;;;22.12;52.34;100679.01;1579464;88;25841;-69
2021/06/16 07:05:08;;;;;;;7.33;2.50;;;;;;;22.23;52.19;100674.37;1599017;87;29654;-70
2021/06/16 07:07:34;;;;;;;8.18;3.20;;;;;;;22.33;51.78;100683.36;1588498;87;26161;-70
2021/06/16 07:10:01;;;;;;;8.28;3.27;;;;;;;22.43;51.73;100674.20;1607925;86;25852;-71
2021/06/16 07:12:27;;;;;;;5.78;3.00;;;;;;;22.50;50.97;100676.41;1600406;87;26000;-71
2021/06/16 07:14:55;;;;;;;9.28;3.62;;;;;;;22.54;50.90;100677.81;1605569;87;26732;-70
2021/06/16 07:17:23;;;;;;;11.85;3.83;;;;;;;22.64;50.75;100679.09;1607041;87;27460;-72
2021/06/16 07:19:50;;;;;;;8.70;2.70;;;;;;;22.79;50.71;100684.13;1596392;87;26005;-71
2021/06/16 07:22:19;;;;;;;9.68;2.85;;;;;;;22.92;50.32;100682.65;1598626;86;26583;-72
2021/06/16 07:24:45;;;;;;;9.47;3.10;;;;;;;23.08;50.17;100674.87;1596026;87;25958;-76
2021/06/16 07:27:12;;;;;;;7.95;2.08;;;;;;;23.25;49.81;100677.53;1596942;87;25780;-73
2021/06/16 07:29:40;;;;;;;8.88;2.40;;;;;;;23.44;49.54;100677.03;1604045;87;28223;-73
2021/06/16 07:32:07;;;;;;;6.72;2.52;;;;;;;23.63;49.05;100673.97;1595268;87;26603;-72
2021/06/16 07:34:34;;;;;;;4.80;2.08;;;;;;;23.77;48.56;100675.17;1601761;87;25865;-73
2021/06/16 07:37:01;;;;;;;6.22;2.02;;;;;;;23.91;48.09;100679.41;1607305;87;26099;-72
2021/06/16 07:39:28;;;;;;;5.28;2.10;;;;;;;24.03;47.62;100676.27;1603851;87;25923;-72
2021/06/16 07:41:54;;;;;;;5.37;2.45;;;;;;;24.12;47.25;100670.35;1599239;87;27589;-70
2021/06/16 07:44:20;;;;;;;4.67;2.17;;;;;;;24.20;47.41;100667.02;1603112;87;25800;-71
2021/06/16 07:46:47;;;;;;;8.75;5.00;;;;;;;24.41;47.45;100673.92;1601416;87;26270;-72
2021/06/16 07:49:14;;;;;;;6.60;2.20;;;;;;;24.61;46.63;100666.66;1606103;87;26584;-73
2021/06/16 07:51:40;;;;;;;4.37;1.60;;;;;;;24.76;45.90;100660.53;1618726;85;25979;-71
2021/06/16 07:54:11;;;;;;;6.03;1.98;;;;;;;24.87;45.55;100666.03;1610691;87;27307;-73
2021/06/16 07:56:35;;;;;;;4.75;1.90;;;;;;;25.07;45.69;100671.92;1601911;86;26678;-72
2021/06/16 07:59:01;;;;;;;3.58;1.80;;;;;;;25.33;45.33;100670.68;1615168;86;25835;-72
2021/06/16 08:01:27;;;;;;;6.45;2.00;;;;;;;25.54;44.82;100671.20;1600053;87;25907;-69
2021/06/16 08:03:54;;;;;;;7.42;1.57;;;;;;;25.81;44.80;100672.84;1616555;86;25804;-70
2021/06/16 08:06:21;;;;;;;6.62;1.75;;;;;;;26.09;43.92;100667.73;1581127;88;27321;-72
2021/06/16 08:08:48;;;;;;;2.27;1.35;;;;;;;26.27;43.03;100670.97;1603419;86;26108;-73
2021/06/16 08:11:15;;;;;;;3.62;1.60;;;;;;;26.42;42.84;100672.44;1602376;86;25788;-73
2021/06/16 08:13:42;;;;;;;5.00;2.00;;;;;;;26.54;42.01;100673.92;1608692;87;28194;-77
2021/06/16 08:16:09;;;;;;;4.45;1.75;;;;;;;26.64;42.13;100678.61;1612967;86;25979;-78
2021/06/16 08:18:35;;;;;;;5.45;2.02;;;;;;;26.72;41.77;100684.12;1611089;86;28161;-76
2021/06/16 08:21:02;;;;;;;5.05;1.55;;;;;;;26.83;41.32;100682.02;1606156;87;25844;-77
2021/06/16 08:23:28;;;;;;;5.47;1.95;;;;;;;26.96;40.82;100681.69;1606687;86;26058;-75
2021/06/16 08:25:56;;;;;;;3.60;1.30;;;;;;;27.07;40.85;100682.95;1593452;87;26011;-77
2021/06/16 08:28:22;;;;;;;5.03;2.05;;;;;;;27.18;40.53;100685.63;1604452;86;25820;-78
2021/06/16 08:30:49;;;;;;;3.02;1.47;;;;;;;27.29;40.21;100688.30;1616931;87;27398;-79
2021/06/16 08:33:15;;;;;;;4.30;1.57;;;;;;;27.42;40.02;100685.78;1607498;87;25774;-73
2021/06/16 08:35:42;;;;;;;3.17;1.45;;;;;;;27.53;39.44;100683.64;1610341;87;25901;-70
2021/06/16 08:38:08;;;;;;;4.78;1.77;;;;;;;27.58;39.43;100685.38;1605910;87;26035;-69
2021/06/16 08:40:35;;;;;;;3.90;1.50;;;;;;;27.73;39.20;100688.73;1604381;87;25968;-69
2021/06/16 08:43:02;;;;;;;3.58;1.45;;;;;;;27.89;38.75;100684.55;1616929;87;27408;-69
2021/06/16 08:45:39;;;;;;;3.75;1.20;;;;;;;28.02;38.53;100686.97;1609004;86;26733;-69
2021/06/16 08:48:07;;;;;;;3.45;1.50;;;;;;;28.17;37.92;100690.33;1603211;87;26087;-72
2021/06/16 08:50:35;;;;;;;5.80;1.75;;;;;;;28.28;38.08;100689.56;1585369;88;25910;-73
2021/06/16 08:53:02;;;;;;;6.12;1.37;;;;;;;28.43;37.67;100697.06;1603641;87;26183;-73
2021/06/16 08:55:28;;;;;;;24.32;2.98;;;;;;;28.56;36.98;100697.28;1550271;88;27442;-74
2021/06/16 08:57:55;;;;;;;5.40;2.08;;;;;;;28.68;36.90;100697.28;1578712;88;26535;-70
2021/06/16 09:00:23;;;;;;;2.70;1.27;;;;;;;28.97;36.38;100695.38;1579510;88;26578;-72
2021/06/16 09:02:51;;;;;;;5.30;1.80;;;;;;;29.26;36.48;100704.62;1569851;88;26169;-66
2021/06/16 09:05:18;;;;;;;2.52;1.35;;;;;;;29.40;36.12;100707.87;1567116;88;25916;-64
2021/06/16 09:07:46;;;;;;;5.05;1.37;;;;;;;29.50;36.57;100703.92;1564593;88;27365;-67
2021/06/16 09:10:20;;;;;;;6.75;1.62;;;;;;;29.57;35.96;100700.98;1611817;87;26144;-65
2021/06/16 09:12:59;;;;;;;6.65;1.70;;;;;;;29.57;36.02;100703.16;1606490;86;26522;-64
2021/06/16 09:15:29;;;;;;;2.52;1.32;;;;;;;29.59;36.20;100704.12;1613981;87;25955;-64
2021/06/16 09:18:08;;;;;;;5.22;1.75;;;;;;;29.67;35.28;100701.98;1607391;87;25780;-66
2021/06/16 09:20:40;;;;;;;;;;;;;;;29.72;35.40;100709.22;1608159;87;27284;-66
2021/06/16 09:23:17;;;;;;;6.75;1.72;;;;;;;29.75;34.79;100709.75;1599347;86;26170;-66
2021/06/16 09:26:05;;;;;;;5.20;1.50;;;;;;;29.78;35.41;100708.12;1603121;87;26424;-68
2021/06/16 09:28:43;;;;;;;4.70;1.40;;;;;;;29.80;34.79;100710.66;1604657;86;25980;-67
2021/06/16 09:31:13;;;;;;;7.12;1.92;;;;;;;29.88;34.49;100711.89;1602586;87;25936;-67
2021/06/16 09:33:40;;;;;;;5.15;1.72;;;;;;;30.02;34.76;100703.81;1602293;87;27431;-67
2021/06/16 09:36:34;;;;;;;3.33;1.53;;;;;;;30.09;34.72;100705.06;1615310;86;26053;-68
2021/06/16 09:39:09;;;;;;;4.67;1.77;;;;;;;30.34;33.88;100705.84;1555806;89;26117;-68
2021/06/16 09:41:37;;;;;;;5.62;2.47;;;;;;;30.44;33.91;100704.05;1549185;90;26252;-67
2021/06/16 09:44:04;;;;;;;4.00;1.80;;;;;;;30.40;34.03;100708.33;1567596;89;26296;-68
2021/06/16 09:46:30;;;;;;;2.67;1.90;;;;;;;30.28;33.87;100712.56;1565664;89;27344;-69
2021/06/16 09:48:57;;;;;;;2.67;1.62;;;;;;;30.15;33.44;100711.09;1566560;89;25907;-70
2021/06/16 09:51:48;;;;;;;4.30;2.25;;;;;;;29.99;33.66;100709.66;1551614;89;26332;-68
2021/06/16 09:54:15;;;;;;;7.12;2.25;;;;;;;29.92;33.46;100715.41;1560343;89;26141;-69
2021/06/16 09:57:00;;;;;;;5.00;2.45;;;;;;;29.79;33.39;100713.27;1565930;89;26605;-70
2021/06/16 09:59:43;;;;;;;4.70;1.95;;;;;;;29.77;34.48;100707.95;1564651;89;27343;-69
2021/06/16 10:02:23;;;;;;;4.15;2.10;;;;;;;29.99;34.66;100711.83;1561215;89;25952;-68
2021/06/16 10:04:59;;;;;;;3.92;2.02;;;;;;;30.31;33.78;100708.13;1593874;87;26005;-68
2021/06/16 10:07:26;;;;;;;6.62;2.22;;;;;;;30.48;34.37;100697.78;1587966;88;26658;-68
2021/06/16 10:10:07;;;;;;;5.42;1.98;;;;;;;30.53;34.06;100702.22;1531721;91;26132;-67
2021/06/16 10:12:42;;;;;;;3.58;2.20;;;;;;;30.65;33.81;100701.31;1594169;88;28304;-68
2021/06/16 10:15:16;;;;;;;3.55;2.22;;;;;;;30.88;33.51;100696.91;1589051;87;26640;-68
2021/06/16 10:17:44;;;;;;;5.75;2.75;;;;;;;31.12;33.28;100701.52;1590121;88;25933;-70
2021/06/16 10:20:14;;;;;;;7.55;2.60;;;;;;;31.33;33.00;100699.53;1564908;89;26036;-73
2021/06/16 10:22:40;;;;;;;7.22;3.08;;;;;;;31.13;32.93;100705.89;1589892;87;25876;-69
2021/06/16 10:25:09;;;;;;;5.87;3.08;;;;;;;31.20;32.54;100710.66;1580576;87;27411;-70
2021/06/16 10:27:50;;;;;;;5.40;2.92;;;;;;;31.24;32.20;100704.34;1580922;88;26000;-66
2021/06/16 10:30:24;;;;;;;5.97;2.47;;;;;;;31.34;32.78;100700.30;1573226;88;26058;-67
2021/06/16 10:32:51;;;;;;;4.10;2.95;;;;;;;31.59;31.86;100703.18;1582870;87;26622;-65
2021/06/16 10:35:38;;;;;;;5.92;2.50;;;;;;;31.83;31.69;100704.27;1572254;88;25878;-64
2021/06/16 10:38:18;;;;;;;5.03;2.67;;;;;;;31.99;32.01;100701.37;1584974;87;27293;-64
2021/06/16 10:40:55;;;;;;;5.28;2.85;;;;;;;32.15;32.14;100710.91;1600116;87;26593;-65
2021/06/16 10:43:35;;;;;;;6.62;2.83;;;;;;;32.28;30.79;100701.86;1584778;87;25818;-67
2021/06/16 10:46:11;;;;;;;6.80;2.60;;;;;;;32.16;30.91;100706.87;1591027;87;25982;-66
2021/06/16 10:48:59;;;;;;;7.20;3.08;;;;;;;31.97;30.37;100698.84;1574806;87;26244;-66
2021/06/16 10:51:33;;;;;;;3.93;3.00;;;;;;;32.00;31.33;100698.73;1576297;88;27351;-67
2021/06/16 10:54:22;;;;;;;9.05;3.58;;;;;;;32.00;31.33;100698.73;1580296;87;25874;-66
2021/06/16 10:57:00;;;;;;;5.78;3.20;;;;;;;32.08;30.75;100697.93;1588202;87;26825;-66
2021/06/16 10:59:51;;;;;;;9.53;3.73;;;;;;;32.24;30.79;100697.02;1586605;87;26585;-65
2021/06/16 11:02:34;;;;;;;4.65;2.92;;;;;;;32.50;31.26;100698.36;1579008;87;25866;-64
2021/06/16 11:05:26;;;;;;;5.60;2.80;;;;;;;32.79;31.02;100697.42;1592016;87;27331;-65
2021/06/16 11:07:54;;;;;;;5.87;2.95;;;;;;;32.98;30.13;100685.74;1575577;88;25870;-66
2021/06/16 11:10:22;;;;;;;4.03;2.98;;;;;;;32.87;29.76;100683.33;1567056;89;26158;-66
2021/06/16 11:12:57;;;;;;;7.90;2.70;;;;;;;32.73;29.86;100691.63;1583257;87;26983;-66
2021/06/16 11:15:29;;;;;;;7.55;3.30;;;;;;;32.75;30.08;100685.72;1586522;87;25790;-65
2021/06/16 11:18:00;;;;;;;3.92;2.80;;;;;;;32.81;30.28;100685.94;1577249;87;27374;-65
2021/06/16 11:20:37;;;;;;;8.65;3.42;;;;;;;32.99;30.49;100682.48;1580342;88;25817;-65
2021/06/16 11:23:05;;;;;;;7.20;3.20;;;;;;;33.06;30.26;100685.02;1589063;87;25844;-65
2021/06/16 11:25:40;;;;;;;6.28;2.60;;;;;;;33.31;29.96;100683.37;1587230;87;26531;-65
2021/06/16 11:28:17;;;;;;;7.53;3.30;;;;;;;33.47;28.96;100675.35;1581514;88;26001;-65
2021/06/16 11:30:59;;;;;;;5.00;2.83;;;;;;;33.49;29.45;100675.07;1574005;87;27389;-64
2021/06/16 11:33:32;;;;;;;5.22;2.90;;;;;;;33.67;28.96;100675.79;1600324;87;25779;-64
2021/06/16 11:36:17;;;;;;;6.45;2.37;;;;;;;33.78;29.20;100671.78;1583422;87;26554;-65
2021/06/16 11:39:03;;;;;;;7.03;3.10;;;;;;;33.99;28.91;100691.20;1528091;91;25986;-67
2021/06/16 11:41:28;;;;;;;6.85;2.92;;;;;;;33.90;28.51;100670.12;1576784;88;26361;-65
2021/06/16 11:44:11;;;;;;;6.17;2.65;;;;;;;33.99;28.79;100677.17;1574675;88;28060;-66
2021/06/16 11:46:43;;;;;;;6.33;3.17;;;;;;;34.06;28.79;100670.64;1584754;88;25977;-67
2021/06/16 11:49:21;;;;;;;6.60;2.85;;;;;;;34.15;28.53;100676.12;1577104;88;25969;-67
2021/06/16 11:51:58;;;;;;;4.50;2.98;;;;;;;34.27;28.25;100677.27;1580695;88;25994;-67
2021/06/16 11:54:28;;;;;;;9.08;3.42;;;;;;;34.35;28.22;100673.70;1562015;88;26021;-69
2021/06/16 11:57:07;;;;;;;10.30;3.22;;;;;;;34.40;28.03;100668.87;1593722;87;27385;-68
2021/06/16 11:59:49;;;;;;;7.00;2.85;;;;;;;34.42;27.62;100673.39;1590296;87;25796;-68
2021/06/16 12:02:25;;;;;;;5.55;2.83;;;;;;;34.64;27.44;100675.29;1581530;88;25906;-67
2021/06/16 12:05:12;;;;;;;5.35;3.00;;;;;;;34.64;27.44;100675.29;1587302;88;26112;-66
2021/06/16 12:07:49;;;;;;;5.17;2.92;;;;;;;34.72;27.47;100664.54;1584993;87;25875;-68
2021/06/16 12:10:25;;;;;;;8.43;3.42;;;;;;;34.68;27.43;100663.27;1588138;87;27261;-64
2021/06/16 12:13:03;;;;;;;3.92;3.08;;;;;;;34.62;27.18;100653.92;1584366;87;25858;-64
2021/06/16 12:15:33;;;;;;;5.17;3.12;;;;;;;34.82;27.65;100663.31;1568304;88;25856;-64
2021/06/16 12:18:11;;;;;;;6.45;3.08;;;;;;;34.88;27.94;100650.82;1588349;88;27138;-65
2021/06/16 12:20:47;;;;;;;5.22;3.25;;;;;;;34.99;27.48;100649.70;1579374;88;25955;-64
2021/06/16 12:23:34;;;;;;;5.37;3.17;;;;;;;34.95;27.46;100642.83;1575413;88;27498;-64
2021/06/16 12:26:15;;;;;;;6.92;3.25;;;;;;;35.09;27.64;100638.62;1567384;88;25906;-66
2021/06/16 12:28:48;;;;;;;4.85;3.45;;;;;;;35.09;27.02;100643.44;1589033;87;26784;-64
2021/06/16 12:31:33;;;;;;;6.97;3.27;;;;;;;35.08;26.97;100639.09;1572408;88;25923;-65
2021/06/16 12:36:34;;;;;;;9.08;3.27;;;;;;;35.28;26.87;100639.38;1580840;88;27341;-65
2021/06/16 12:39:23;;;;;;;5.80;3.50;;;;;;;35.38;26.98;100644.96;1575418;88;26621;-65
2021/06/16 12:41:51;;;;;;;6.42;3.55;;;;;;;35.30;26.04;100631.25;1576119;88;26060;-65
2021/06/16 12:44:35;;;;;;;7.80;3.50;;;;;;;34.94;26.32;100631.45;1576335;88;26857;-65
2021/06/16 12:47:12;;;;;;;5.40;3.52;;;;;;;34.75;26.12;100641.94;1589720;87;25776;-65
2021/06/16 12:49:53;;;;;;;5.08;3.50;;;;;;;34.35;26.51;100649.06;1591641;87;27412;-66
2021/06/16 12:52:40;;;;;;;4.45;3.40;;;;;;;34.39;27.15;100637.05;1583950;87;26027;-64
2021/06/16 12:55:16;;;;;;;7.33;3.50;;;;;;;34.48;26.87;100634.87;1595293;87;25792;-67
2021/06/16 12:57:52;;;;;;;5.87;3.92;;;;;;;34.14;26.82;100632.45;1520437;91;26886;-66
2021/06/16 13:00:26;;;;;;;7.12;3.65;;;;;;;33.77;27.06;100631.75;1559983;89;25781;-66
2021/06/16 13:02:53;;;;;;;5.78;3.70;;;;;;;33.43;27.44;100632.04;1557841;89;27398;-66
2021/06/16 13:05:29;;;;;;;6.37;3.58;;;;;;;33.13;27.89;100624.55;1567869;89;25956;-66
2021/06/16 13:08:01;;;;;;;10.45;3.75;;;;;;;33.02;28.27;100628.98;1587571;87;25902;-65
2021/06/16 13:10:38;;;;;;;8.55;3.60;;;;;;;32.89;28.58;100629.03;1589091;88;26498;-65
2021/06/16 13:13:17;;;;;;;6.75;3.55;;;;;;;32.79;28.96;100628.18;1584510;87;25835;-65
2021/06/16 13:15:51;;;;;;;6.08;3.87;;;;;;;32.76;28.50;100626.31;1589513;88;27324;-65
2021/06/16 13:18:22;;;;;;;5.70;3.62;;;;;;;32.45;28.44;100623.36;1580540;87;26823;-66
2021/06/16 13:20:57;;;;;;;5.85;3.92;;;;;;;32.36;28.93;100622.66;1579637;87;25910;-66
2021/06/16 13:23:34;;;;;;;4.35;3.70;;;;;;;32.41;29.01;100624.11;1582248;88;26086;-66
2021/06/16 13:26:10;;;;;;;4.83;3.92;;;;;;;32.44;28.67;100614.19;1585055;88;25575;-66
2021/06/16 13:28:40;;;;;;;6.53;3.87;;;;;;;32.34;28.93;100616.12;1533035;91;28017;-65
2021/06/16 13:31:22;;;;;;;4.40;3.90;;;;;;;32.30;29.53;100610.47;1561377;89;25850;-65
2021/06/16 13:33:50;;;;;;;6.87;4.08;;;;;;;32.34;29.59;100616.12;1532373;90;26035;-65
2021/06/16 13:36:23;;;;;;;4.45;3.47;;;;;;;32.52;29.90;100613.31;1546027;90;26549;-65
2021/06/16 13:38:55;;;;;;;7.12;3.80;;;;;;;32.72;29.64;100612.41;1538765;90;26883;-65
2021/06/16 13:41:23;;;;;;;3.65;3.22;;;;;;;32.88;29.00;100615.66;1541873;90;28085;-66
2021/06/16 13:43:49;;;;;;;5.92;3.62;;;;;;;32.95;29.19;100610.41;1583169;87;25899;-65
2021/06/16 13:46:16;;;;;;;6.37;3.42;;;;;;;33.04;28.71;100616.06;1604691;87;25908;-65
2021/06/16 13:48:44;;;;;;;7.25;3.52;;;;;;;33.06;28.58;100600.97;1589808;87;26107;-65
2021/06/16 13:51:10;;;;;;;10.80;3.80;;;;;;;33.18;28.42;100606.36;1566124;88;25907;-66
2021/06/16 13:53:37;;;;;;;8.48;3.27;;;;;;;33.21;28.25;100600.48;1586039;87;27406;-65
2021/06/16 13:56:05;;;;;;;5.50;3.05;;;;;;;33.23;28.47;100599.39;1574445;87;26440;-65
2021/06/16 13:58:32;;;;;;;6.37;3.03;;;;;;;33.29;28.49;100594.14;1573634;88;26062;-65
2021/06/16 14:01:00;;;;;;;3.92;2.85;;;;;;;33.32;28.38;100591.02;1567540;89;26579;-65
2021/06/16 14:03:27;;;;;;;7.08;2.67;;;;;;;33.36;28.50;100593.70;1592794;87;26356;-65
2021/06/16 14:05:55;;;;;;;8.68;3.67;;;;;;;33.29;28.12;100594.77;1588298;88;29479;-65
2021/06/16 14:08:22;;;;;;;4.42;3.20;;;;;;;33.23;28.19;100596.59;1581376;87;25548;-65
2021/06/16 14:10:48;;;;;;;5.47;3.12;;;;;;;33.21;27.70;100587.23;1582638;87;25829;-66
2021/06/16 14:13:19;;;;;;;3.22;2.67;;;;;;;33.02;27.93;100582.13;1573364;88;26006;-65
2021/06/16 14:15:48;;;;;;;6.45;2.95;;;;;;;32.99;27.78;100581.64;1585013;87;26683;-66
2021/06/16 14:18:15;;;;;;;5.05;3.20;;;;;;;32.94;27.93;100574.59;1587687;87;27334;-67
2021/06/16 14:20:41;;;;;;;3.70;2.95;;;;;;;32.87;28.21;100572.07;1582623;87;25874;-66
2021/06/16 14:23:11;;;;;;;5.60;2.92;;;;;;;32.94;28.00;100587.83;1576869;88;25752;-68
2021/06/16 14:25:40;;;;;;;4.62;2.42;;;;;;;32.75;28.00;100572.93;1578118;87;25951;-66
2021/06/16 14:28:10;;;;;;;3.80;3.08;;;;;;;32.75;28.00;100572.93;1582786;87;25838;-68
2021/06/16 14:30:37;;;;;;;7.65;2.67;;;;;;;32.69;28.04;100581.74;1577326;87;28081;-68
2021/06/16 14:33:05;;;;;;;6.22;2.90;;;;;;;32.39;28.45;100566.56;1572094;88;25902;-68
2021/06/16 14:35:33;;;;;;;11.30;5.37;;;;;;;32.29;28.57;100561.35;1582510;88;26190;-68
2021/06/16 14:38:00;;;;;;;6.08;5.22;;;;;;;32.17;28.44;100558.76;1551748;88;26786;-69
2021/06/16 14:40:26;;;;;;;8.00;3.08;;;;;;;32.14;29.03;100552.03;1587917;88;25934;-68
2021/06/16 14:42:53;;;;;;;4.87;2.90;;;;;;;32.13;28.89;100557.48;1555156;88;27530;-69
2021/06/16 14:45:20;;;;;;;12.82;3.37;;;;;;;32.08;28.91;100553.06;1578853;87;25891;-71
2021/06/16 14:47:46;;;;;;;5.25;3.00;;;;;;;32.03;28.70;100551.61;1581386;88;26206;-68
2021/06/16 14:50:14;;;;;;;3.05;2.72;;;;;;;32.00;28.75;100550.48;1576340;88;25921;-68
2021/06/16 14:52:41;;;;;;;4.30;2.87;;;;;;;31.98;28.75;100554.35;1587047;87;25824;-67
2021/06/16 14:55:09;;;;;;;3.25;2.52;;;;;;;31.92;28.71;100551.95;1575506;87;27345;-67
2021/06/16 14:57:35;;;;;;;7.92;2.60;;;;;;;31.87;29.13;100548.95;1568845;88;26381;-66
2021/06/16 15:00:04;;;;;;;4.40;2.77;;;;;;;31.84;29.03;100547.83;1578748;88;25967;-66
2021/06/16 15:02:31;;;;;;;4.97;2.60;;;;;;;31.81;28.96;100552.94;1577797;88;26591;-67
2021/06/16 15:04:57;;;;;;;3.55;2.67;;;;;;;31.73;28.89;100550.98;1555890;89;26627;-71
2021/06/16 15:07:23;;;;;;;5.83;2.65;;;;;;;31.65;29.02;100549.64;1532330;89;28287;-71
2021/06/16 15:09:51;;;;;;;6.08;3.62;;;;;;;31.59;29.09;100552.23;1567722;88;26323;-68
2021/06/16 15:12:19;;;;;;;4.65;2.67;;;;;;;31.54;29.04;100551.40;1566814;88;25928;-67
2021/06/16 15:14:45;;;;;;;9.15;3.33;;;;;;;31.45;29.36;100542.89;1574510;88;26647;-67
2021/06/16 15:17:12;;;;;;;3.80;2.42;;;;;;;31.37;29.30;100547.12;1580907;88;25870;-66
2021/06/16 15:19:45;;;;;;;5.30;2.62;;;;;;;31.28;29.46;100542.98;1577445;88;28211;-68
2021/06/16 15:22:15;;;;;;;5.50;2.20;;;;;;;31.22;29.63;100546.78;1572783;87;25614;-67
2021/06/16 15:24:43;;;;;;;3.72;2.92;;;;;;;31.15;29.78;100535.83;1591831;88;26477;-68
2021/06/16 15:27:10;;;;;;;4.72;2.90;;;;;;;31.03;29.80;100540.17;1583514;88;33388;-67
2021/06/16 15:29:37;;;;;;;4.53;2.60;;;;;;;30.93;30.03;100547.60;1590348;87;25807;-67
2021/06/16 15:32:04;;;;;;;5.22;2.55;;;;;;;30.80;30.01;100540.61;1569472;88;27369;-66
2021/06/16 15:34:32;;;;;;;4.40;2.95;;;;;;;30.70;30.18;100536.12;1563332;89;25964;-68
2021/06/16 15:36:59;;;;;;;5.72;3.35;;;;;;;30.61;30.31;100535.96;1567577;89;33205;-68
2021/06/16 15:39:26;;;;;;;4.28;3.30;;;;;;;30.50;30.49;100538.44;1543387;90;26104;-68
2021/06/16 15:41:54;;;;;;;6.65;2.92;;;;;;;30.38;30.47;100541.16;1559707;89;25743;-67
2021/06/16 15:44:21;;;;;;;3.53;2.70;;;;;;;30.25;30.51;100536.91;1560542;89;27560;-67
2021/06/16 15:46:48;;;;;;;4.17;3.05;;;;;;;30.15;30.75;100538.75;1551415;89;26029;-66
2021/06/16 15:49:15;;;;;;;4.08;2.42;;;;;;;30.07;31.00;100538.17;1556813;89;26571;-66
2021/06/16 15:51:42;;;;;;;3.00;2.70;;;;;;;29.97;30.90;100540.00;1548489;89;26700;-67
2021/06/16 15:54:08;;;;;;;4.28;2.42;;;;;;;29.88;30.91;100541.83;1551415;89;25848;-67
2021/06/16 15:56:35;;;;;;;5.45;2.85;;;;;;;29.77;30.96;100535.91;1554226;89;27368;-67
2021/06/16 15:59:02;;;;;;;3.75;2.47;;;;;;;29.69;31.07;100540.06;1531468;91;25894;-68
2021/06/16 16:01:29;;;;;;;5.42;2.60;;;;;;;29.53;30.93;100535.88;1530636;91;25916;-70
2021/06/16 16:03:57;;;;;;;5.70;2.52;;;;;;;29.43;31.15;100534.30;1535361;90;28076;-70
2021/06/16 16:06:24;;;;;;;6.50;2.67;;;;;;;29.33;31.56;100538.11;1542582;90;25999;-71
2021/06/16 16:08:53;;;;;;;4.83;2.60;;;;;;;29.23;31.62;100544.70;1545161;90;27412;-70
2021/06/16 16:11:21;;;;;;;4.95;3.40;;;;;;;29.10;31.59;100540.98;1552659;89;25932;-69
2021/06/16 16:13:49;;;;;;;8.63;2.75;;;;;;;28.92;31.77;100533.80;1545989;90;25815;-70
2021/06/16 16:16:16;;;;;;;4.58;2.40;;;;;;;28.83;31.89;100539.95;1543224;89;25972;-67
2021/06/16 16:18:42;;;;;;;4.03;2.20;;;;;;;28.71;31.94;100537.02;1540563;90;26258;-68
2021/06/16 16:21:10;;;;;;;4.90;2.37;;;;;;;28.54;32.03;100545.27;1536176;90;27385;-69
2021/06/16 16:23:37;;;;;;;6.35;2.33;;;;;;;28.40;32.08;100546.33;1526320;90;25817;-69
2021/06/16 16:26:04;;;;;;;3.33;2.33;;;;;;;28.26;32.13;100547.96;1533525;90;26047;-74
2021/06/16 16:28:31;;;;;;;4.08;1.80;;;;;;;28.15;32.42;100543.99;1537831;89;26383;-71
2021/06/16 16:30:59;;;;;;;4.70;1.98;;;;;;;28.01;32.44;100536.69;1527316;90;25853;-70
2021/06/16 16:33:25;;;;;;;6.47;2.58;;;;;;;27.89;32.48;100539.44;1526446;91;27421;-73
2021/06/16 16:35:52;;;;;;;5.22;2.85;;;;;;;27.78;32.68;100538.03;1524455;90;26887;-69
2021/06/16 16:38:19;;;;;;;2.30;1.70;;;;;;;27.67;32.79;100540.97;1539611;90;25969;-72
2021/06/16 16:40:47;;;;;;;2.42;1.95;;;;;;;27.58;32.82;100542.30;1534098;90;25904;-73
2021/06/16 16:43:17;;;;;;;4.33;2.17;;;;;;;27.50;32.91;100536.67;1553264;90;27355;-73
2021/06/16 16:45:45;;;;;;;4.03;2.50;;;;;;;27.39;32.87;100537.42;1532358;89;27425;-72
2021/06/16 16:48:14;;;;;;;6.87;2.80;;;;;;;27.28;32.98;100542.33;1544392;89;25730;-73
2021/06/16 16:50:40;;;;;;;2.58;2.00;;;;;;;27.15;33.27;100551.80;1574863;88;26689;-79
2021/06/16 16:53:08;;;;;;;6.12;2.47;;;;;;;27.03;33.30;100551.76;1579697;88;26010;-77
2021/06/16 16:55:35;;;;;;;3.90;2.20;;;;;;;26.92;33.50;100549.13;1590668;87;25694;-84
2021/06/16 16:58:04;;;;;;;6.83;3.58;;;;;;;26.81;33.65;100545.68;1581559;88;28064;-78
2021/06/16 17:00:32;;;;;;;3.90;2.10;;;;;;;26.71;33.89;100544.59;1575225;88;25955;-75
2021/06/16 17:02:59;;;;;;;3.10;2.10;;;;;;;26.59;33.73;100544.50;1575356;88;25432;-80
2021/06/16 17:05:26;;;;;;;4.17;2.08;;;;;;;26.51;33.76;100543.61;1577367;88;25924;-67
2021/06/16 17:07:54;;;;;;;5.97;2.58;;;;;;;26.41;33.74;100546.70;1554858;89;26102;-67
2021/06/16 17:10:21;;;;;;;3.87;1.70;;;;;;;26.33;33.80;100544.58;1588507;87;27261;-66
2021/06/16 17:12:51;;;;;;;4.47;1.82;;;;;;;26.26;33.90;100545.44;1560126;88;26727;-64